sensor_id;sensor_type;location;lat;lon;timestamp;temperature;humidity
3100;DHT22;1560;52.746;13.474;2023-07-30T00:02:05;17.40;99.90
3100;DHT22;1560;52.746;13.474;2023-07-30T00:04:34;17.40;99.90
3100;DHT22;1560;52.746;13.474;2023-07-30T00:09:40;17.30;99.90
3100;DHT22;1560;52.746;13.474;2023-07-30T00:12:09;17.40;99.90
3100;DHT22;1560;52.746;13.474;2023-07-30T00:14:38;17.40;99.90
3100;DHT22;1560;52.746;13.474;2023-07-30T00:19:44;17.40;99.90
3100;DHT22;1560;52.746;13.474;2023-07-30T00:22:12;17.30;99.90
3100;DHT22;1560;52.746;13.474;2023-07-30T00:24:41;17.20;99.90
3100;DHT22;1560;52.746;13.474;2023-07-30T00:27:10;17.20;99.90
3100;DHT22;1560;52.746;13.474;2023-07-30T00:32:14;17.20;99.90
3100;DHT22;1560;52.746;13.474;2023-07-30T00:34:44;17.20;99.90
3100;DHT22;1560;52.746;13.474;2023-07-30T00:37:13;17.20;99.90
3100;DHT22;1560;52.746;13.474;2023-07-30T00:39:41;17.20;99.90
3100;DHT22;1560;52.746;13.474;2023-07-30T00:44:47;17.10;99.90
3100;DHT22;1560;52.746;13.474;2023-07-30T00:47:15;17.10;99.90
3100;DHT22;1560;52.746;13.474;2023-07-30T00:49:44;17.10;99.90
3100;DHT22;1560;52.746;13.474;2023-07-30T00:52:13;17.00;99.90
3100;DHT22;1560;52.746;13.474;2023-07-30T00:54:43;17.00;99.90
3100;DHT22;1560;52.746;13.474;2023-07-30T00:57:11;17.00;99.90
3100;DHT22;1560;52.746;13.474;2023-07-30T00:59:41;17.00;99.90
3100;DHT22;1560;52.746;13.474;2023-07-30T01:04:47;17.00;99.90
3100;DHT22;1560;52.746;13.474;2023-07-30T01:07:15;17.00;99.90
3100;DHT22;1560;52.746;13.474;2023-07-30T01:09:44;16.90;99.90
3100;DHT22;1560;52.746;13.474;2023-07-30T01:14:51;17.00;99.90
3100;DHT22;1560;52.746;13.474;2023-07-30T01:17:20;17.00;99.90
3100;DHT22;1560;52.746;13.474;2023-07-30T01:19:50;17.00;99.90
3100;DHT22;1560;52.746;13.474;2023-07-30T01:22:21;17.00;99.90
3100;DHT22;1560;52.746;13.474;2023-07-30T01:24:50;16.90;99.90
3100;DHT22;1560;52.746;13.474;2023-07-30T01:30:03;17.00;99.90
3100;DHT22;1560;52.746;13.474;2023-07-30T01:32:32;16.90;99.90
3100;DHT22;1560;52.746;13.474;2023-07-30T01:35:02;16.90;99.90
3100;DHT22;1560;52.746;13.474;2023-07-30T01:37:31;16.80;99.90
3100;DHT22;1560;52.746;13.474;2023-07-30T01:40:01;16.70;99.90
3100;DHT22;1560;52.746;13.474;2023-07-30T01:42:30;16.70;99.90
3100;DHT22;1560;52.746;13.474;2023-07-30T01:47:36;16.60;99.90
3100;DHT22;1560;52.746;13.474;2023-07-30T01:52:41;16.40;99.90
3100;DHT22;1560;52.746;13.474;2023-07-30T01:55:10;16.40;99.90
3100;DHT22;1560;52.746;13.474;2023-07-30T01:57:39;16.40;99.90
3100;DHT22;1560;52.746;13.474;2023-07-30T02:00:09;16.30;99.90
3100;DHT22;1560;52.746;13.474;2023-07-30T02:05:15;16.40;99.90
3100;DHT22;1560;52.746;13.474;2023-07-30T02:07:44;16.30;99.90
3100;DHT22;1560;52.746;13.474;2023-07-30T02:10:13;16.30;99.90
3100;DHT22;1560;52.746;13.474;2023-07-30T02:15:19;16.30;99.90
3100;DHT22;1560;52.746;13.474;2023-07-30T02:17:47;16.40;99.90
3100;DHT22;1560;52.746;13.474;2023-07-30T02:20:16;16.40;99.90
3100;DHT22;1560;52.746;13.474;2023-07-30T02:22:45;16.40;99.90
3100;DHT22;1560;52.746;13.474;2023-07-30T02:27:50;16.40;99.90
3100;DHT22;1560;52.746;13.474;2023-07-30T02:32:56;16.40;99.90
3100;DHT22;1560;52.746;13.474;2023-07-30T02:35:24;16.40;99.90
3100;DHT22;1560;52.746;13.474;2023-07-30T02:37:53;16.40;99.90
3100;DHT22;1560;52.746;13.474;2023-07-30T02:40:22;16.30;99.90
3100;DHT22;1560;52.746;13.474;2023-07-30T02:42:50;16.30;99.90
3100;DHT22;1560;52.746;13.474;2023-07-30T02:47:56;16.30;99.90
3100;DHT22;1560;52.746;13.474;2023-07-30T02:50:25;16.20;99.90
3100;DHT22;1560;52.746;13.474;2023-07-30T02:55:30;16.10;99.90
3100;DHT22;1560;52.746;13.474;2023-07-30T03:00:36;16.00;99.90
3100;DHT22;1560;52.746;13.474;2023-07-30T03:03:05;16.00;99.90
3100;DHT22;1560;52.746;13.474;2023-07-30T03:05:34;15.90;99.90
3100;DHT22;1560;52.746;13.474;2023-07-30T03:08:02;15.90;99.90
3100;DHT22;1560;52.746;13.474;2023-07-30T03:13:07;15.90;99.90
3100;DHT22;1560;52.746;13.474;2023-07-30T03:15:36;15.90;99.90
3100;DHT22;1560;52.746;13.474;2023-07-30T03:20:42;15.90;99.90
3100;DHT22;1560;52.746;13.474;2023-07-30T03:23:10;16.00;99.90
3100;DHT22;1560;52.746;13.474;2023-07-30T03:25:39;16.00;99.90
3100;DHT22;1560;52.746;13.474;2023-07-30T03:28:08;16.00;99.90
3100;DHT22;1560;52.746;13.474;2023-07-30T03:33:13;16.00;99.90
3100;DHT22;1560;52.746;13.474;2023-07-30T03:35:42;16.10;99.90
3100;DHT22;1560;52.746;13.474;2023-07-30T03:40:48;16.00;99.90
3100;DHT22;1560;52.746;13.474;2023-07-30T03:43:16;16.00;99.90
3100;DHT22;1560;52.746;13.474;2023-07-30T03:45:45;16.00;99.90
3100;DHT22;1560;52.746;13.474;2023-07-30T03:50:51;15.90;99.90
3100;DHT22;1560;52.746;13.474;2023-07-30T03:53:20;15.90;99.90
3100;DHT22;1560;52.746;13.474;2023-07-30T03:55:49;15.90;99.90
3100;DHT22;1560;52.746;13.474;2023-07-30T04:00:55;15.90;99.90
3100;DHT22;1560;52.746;13.474;2023-07-30T04:03:23;15.90;99.90
3100;DHT22;1560;52.746;13.474;2023-07-30T04:05:52;15.90;99.90
3100;DHT22;1560;52.746;13.474;2023-07-30T04:10:58;15.90;99.90
3100;DHT22;1560;52.746;13.474;2023-07-30T04:13:26;15.80;99.90
3100;DHT22;1560;52.746;13.474;2023-07-30T04:15:55;15.90;99.90
3100;DHT22;1560;52.746;13.474;2023-07-30T04:18:24;15.90;99.90
3100;DHT22;1560;52.746;13.474;2023-07-30T04:23:28;15.90;99.90
3100;DHT22;1560;52.746;13.474;2023-07-30T04:25:57;15.90;99.90
3100;DHT22;1560;52.746;13.474;2023-07-30T04:31:03;15.90;99.90
3100;DHT22;1560;52.746;13.474;2023-07-30T04:33:32;15.90;99.90
3100;DHT22;1560;52.746;13.474;2023-07-30T04:36:01;16.00;99.90
3100;DHT22;1560;52.746;13.474;2023-07-30T04:41:07;16.00;99.90
3100;DHT22;1560;52.746;13.474;2023-07-30T04:43:35;16.10;99.90
3100;DHT22;1560;52.746;13.474;2023-07-30T04:46:04;16.10;99.90
3100;DHT22;1560;52.746;13.474;2023-07-30T04:48:32;16.20;99.90
3100;DHT22;1560;52.746;13.474;2023-07-30T04:51:01;16.20;99.90
3100;DHT22;1560;52.746;13.474;2023-07-30T04:53:30;16.20;99.90
3100;DHT22;1560;52.746;13.474;2023-07-30T04:58:35;16.20;99.90
3100;DHT22;1560;52.746;13.474;2023-07-30T05:01:04;16.20;99.90
3100;DHT22;1560;52.746;13.474;2023-07-30T05:03:33;16.20;99.90
3100;DHT22;1560;52.746;13.474;2023-07-30T05:06:01;16.30;99.90
3100;DHT22;1560;52.746;13.474;2023-07-30T05:08:30;16.30;99.90
3100;DHT22;1560;52.746;13.474;2023-07-30T05:10:59;16.30;99.90
3100;DHT22;1560;52.746;13.474;2023-07-30T05:13:27;16.30;99.90
3100;DHT22;1560;52.746;13.474;2023-07-30T05:15:56;16.30;99.90
3100;DHT22;1560;52.746;13.474;2023-07-30T05:18:24;16.30;99.90
3100;DHT22;1560;52.746;13.474;2023-07-30T05:20:53;16.40;99.90
3100;DHT22;1560;52.746;13.474;2023-07-30T05:23:22;16.40;99.90
3100;DHT22;1560;52.746;13.474;2023-07-30T05:25:50;16.50;99.90
3100;DHT22;1560;52.746;13.474;2023-07-30T05:30:56;16.70;99.90
3100;DHT22;1560;52.746;13.474;2023-07-30T05:33:25;16.70;99.90
3100;DHT22;1560;52.746;13.474;2023-07-30T05:35:53;16.80;99.90
3100;DHT22;1560;52.746;13.474;2023-07-30T05:40:58;16.90;99.90
3100;DHT22;1560;52.746;13.474;2023-07-30T05:43:27;16.90;99.90
3100;DHT22;1560;52.746;13.474;2023-07-30T05:45:55;16.90;99.90
3100;DHT22;1560;52.746;13.474;2023-07-30T05:48:24;16.90;99.90
3100;DHT22;1560;52.746;13.474;2023-07-30T05:50:53;17.00;99.90
3100;DHT22;1560;52.746;13.474;2023-07-30T05:55:58;17.10;99.90
3100;DHT22;1560;52.746;13.474;2023-07-30T05:58:27;17.10;99.90
3100;DHT22;1560;52.746;13.474;2023-07-30T06:00:57;17.20;99.90
3100;DHT22;1560;52.746;13.474;2023-07-30T06:03:25;17.30;99.90
3100;DHT22;1560;52.746;13.474;2023-07-30T06:05:54;17.40;99.90
3100;DHT22;1560;52.746;13.474;2023-07-30T06:08:22;17.40;99.90
3100;DHT22;1560;52.746;13.474;2023-07-30T06:10:51;17.50;99.90
3100;DHT22;1560;52.746;13.474;2023-07-30T06:15:57;17.50;99.90
3100;DHT22;1560;52.746;13.474;2023-07-30T06:18:25;17.60;99.90
3100;DHT22;1560;52.746;13.474;2023-07-30T06:20:54;17.60;99.90
3100;DHT22;1560;52.746;13.474;2023-07-30T06:23:23;17.60;99.90
3100;DHT22;1560;52.746;13.474;2023-07-30T06:25:51;17.60;99.90
3100;DHT22;1560;52.746;13.474;2023-07-30T06:28:20;17.60;99.90
3100;DHT22;1560;52.746;13.474;2023-07-30T06:30:48;17.70;99.90
3100;DHT22;1560;52.746;13.474;2023-07-30T06:33:17;17.70;99.90
3100;DHT22;1560;52.746;13.474;2023-07-30T06:35:45;17.80;99.90
3100;DHT22;1560;52.746;13.474;2023-07-30T06:40:50;17.90;99.90
3100;DHT22;1560;52.746;13.474;2023-07-30T06:43:18;17.80;99.90
3100;DHT22;1560;52.746;13.474;2023-07-30T06:45:47;17.90;99.90
3100;DHT22;1560;52.746;13.474;2023-07-30T06:48:16;17.90;99.90
3100;DHT22;1560;52.746;13.474;2023-07-30T06:50:44;18.00;99.90
3100;DHT22;1560;52.746;13.474;2023-07-30T06:53:13;18.00;99.90
3100;DHT22;1560;52.746;13.474;2023-07-30T06:55:41;18.00;99.90
3100;DHT22;1560;52.746;13.474;2023-07-30T06:58:10;18.10;99.90
3100;DHT22;1560;52.746;13.474;2023-07-30T07:00:39;18.10;99.90
3100;DHT22;1560;52.746;13.474;2023-07-30T07:03:08;18.20;99.90
3100;DHT22;1560;52.746;13.474;2023-07-30T07:05:37;18.30;99.90
3100;DHT22;1560;52.746;13.474;2023-07-30T07:10:42;18.50;99.90
3100;DHT22;1560;52.746;13.474;2023-07-30T07:13:12;18.60;99.90
3100;DHT22;1560;52.746;13.474;2023-07-30T07:15:42;18.70;99.90
3100;DHT22;1560;52.746;13.474;2023-07-30T07:18:11;18.80;99.90
3100;DHT22;1560;52.746;13.474;2023-07-30T07:23:17;19.00;99.90
3100;DHT22;1560;52.746;13.474;2023-07-30T07:25:45;19.00;99.90
3100;DHT22;1560;52.746;13.474;2023-07-30T07:28:14;19.10;99.90
3100;DHT22;1560;52.746;13.474;2023-07-30T07:30:43;19.20;99.90
3100;DHT22;1560;52.746;13.474;2023-07-30T07:33:12;19.30;99.90
3100;DHT22;1560;52.746;13.474;2023-07-30T07:38:18;19.40;99.90
3100;DHT22;1560;52.746;13.474;2023-07-30T07:40:46;19.50;99.90
3100;DHT22;1560;52.746;13.474;2023-07-30T07:43:15;19.50;99.90
3100;DHT22;1560;52.746;13.474;2023-07-30T07:48:20;19.50;99.90
3100;DHT22;1560;52.746;13.474;2023-07-30T07:53:26;19.70;99.90
3100;DHT22;1560;52.746;13.474;2023-07-30T07:55:54;19.70;99.90
3100;DHT22;1560;52.746;13.474;2023-07-30T07:58:23;19.70;99.90
3100;DHT22;1560;52.746;13.474;2023-07-30T08:00:54;19.70;99.90
3100;DHT22;1560;52.746;13.474;2023-07-30T08:03:23;19.70;99.90
3100;DHT22;1560;52.746;13.474;2023-07-30T08:05:54;19.80;99.90
3100;DHT22;1560;52.746;13.474;2023-07-30T08:11:04;19.90;99.90
3100;DHT22;1560;52.746;13.474;2023-07-30T08:13:33;20.00;99.90
3100;DHT22;1560;52.746;13.474;2023-07-30T08:16:03;20.00;99.90
3100;DHT22;1560;52.746;13.474;2023-07-30T08:18:31;20.10;99.90
3100;DHT22;1560;52.746;13.474;2023-07-30T08:21:01;20.30;99.90
3100;DHT22;1560;52.746;13.474;2023-07-30T08:23:29;20.50;99.90
3100;DHT22;1560;52.746;13.474;2023-07-30T08:25:58;20.70;99.90
3100;DHT22;1560;52.746;13.474;2023-07-30T08:28:26;20.70;99.90
3100;DHT22;1560;52.746;13.474;2023-07-30T08:33:37;20.50;99.90
3100;DHT22;1560;52.746;13.474;2023-07-30T08:36:06;20.50;99.90
3100;DHT22;1560;52.746;13.474;2023-07-30T08:38:34;20.50;99.90
3100;DHT22;1560;52.746;13.474;2023-07-30T08:41:03;20.70;99.90
3100;DHT22;1560;52.746;13.474;2023-07-30T08:46:09;20.90;99.90
3100;DHT22;1560;52.746;13.474;2023-07-30T08:48:38;20.80;99.90
3100;DHT22;1560;52.746;13.474;2023-07-30T08:51:07;21.00;99.90
3100;DHT22;1560;52.746;13.474;2023-07-30T08:53:36;21.10;99.90
3100;DHT22;1560;52.746;13.474;2023-07-30T08:58:41;21.00;99.90
3100;DHT22;1560;52.746;13.474;2023-07-30T09:03:49;20.90;99.90
3100;DHT22;1560;52.746;13.474;2023-07-30T09:06:19;21.00;99.90
3100;DHT22;1560;52.746;13.474;2023-07-30T09:08:48;21.30;99.90
3100;DHT22;1560;52.746;13.474;2023-07-30T09:11:17;21.60;99.90
3100;DHT22;1560;52.746;13.474;2023-07-30T09:13:47;22.00;99.90
3100;DHT22;1560;52.746;13.474;2023-07-30T09:16:16;22.30;99.90
3100;DHT22;1560;52.746;13.474;2023-07-30T09:21:31;22.60;99.90
3100;DHT22;1560;52.746;13.474;2023-07-30T09:24:02;22.80;99.90
3100;DHT22;1560;52.746;13.474;2023-07-30T09:26:42;22.80;99.90
3100;DHT22;1560;52.746;13.474;2023-07-30T09:29:11;22.50;99.90
3100;DHT22;1560;52.746;13.474;2023-07-30T09:31:50;22.10;99.90
3100;DHT22;1560;52.746;13.474;2023-07-30T09:34:21;22.00;99.90
3100;DHT22;1560;52.746;13.474;2023-07-30T09:36:53;22.10;99.90
3100;DHT22;1560;52.746;13.474;2023-07-30T09:39:23;22.40;99.90
3100;DHT22;1560;52.746;13.474;2023-07-30T09:41:53;22.70;94.80
3100;DHT22;1560;52.746;13.474;2023-07-30T09:44:23;22.90;99.90
3100;DHT22;1560;52.746;13.474;2023-07-30T09:46:51;23.30;99.90
3100;DHT22;1560;52.746;13.474;2023-07-30T09:49:20;23.40;99.90
3100;DHT22;1560;52.746;13.474;2023-07-30T09:54:26;23.90;99.90
3100;DHT22;1560;52.746;13.474;2023-07-30T09:56:55;24.10;99.90
3100;DHT22;1560;52.746;13.474;2023-07-30T09:59:24;24.30;99.90
3100;DHT22;1560;52.746;13.474;2023-07-30T10:04:31;23.90;99.90
3100;DHT22;1560;52.746;13.474;2023-07-30T10:07:04;23.80;99.90
3100;DHT22;1560;52.746;13.474;2023-07-30T10:09:37;23.50;99.90
3100;DHT22;1560;52.746;13.474;2023-07-30T10:12:09;23.30;99.90
3100;DHT22;1560;52.746;13.474;2023-07-30T10:14:38;23.70;99.90
3100;DHT22;1560;52.746;13.474;2023-07-30T10:17:10;24.10;99.90
3100;DHT22;1560;52.746;13.474;2023-07-30T10:19:39;24.20;99.90
3100;DHT22;1560;52.746;13.474;2023-07-30T10:22:22;24.00;99.90
3100;DHT22;1560;52.746;13.474;2023-07-30T10:27:38;23.50;99.90
3100;DHT22;1560;52.746;13.474;2023-07-30T10:30:11;23.80;99.90
3100;DHT22;1560;52.746;13.474;2023-07-30T10:35:37;24.40;99.90
3100;DHT22;1560;52.746;13.474;2023-07-30T10:38:17;24.20;99.90
3100;DHT22;1560;52.746;13.474;2023-07-30T10:41:04;23.80;99.90
3100;DHT22;1560;52.746;13.474;2023-07-30T10:46:12;24.10;99.90
3100;DHT22;1560;52.746;13.474;2023-07-30T10:51:18;24.60;99.90
3100;DHT22;1560;52.746;13.474;2023-07-30T10:53:49;24.90;99.90
3100;DHT22;1560;52.746;13.474;2023-07-30T10:56:20;25.00;99.90
3100;DHT22;1560;52.746;13.474;2023-07-30T11:01:26;25.50;99.90
3100;DHT22;1560;52.746;13.474;2023-07-30T11:03:54;25.30;99.90
3100;DHT22;1560;52.746;13.474;2023-07-30T11:06:24;25.00;99.90
3100;DHT22;1560;52.746;13.474;2023-07-30T11:11:30;24.20;99.90
3100;DHT22;1560;52.746;13.474;2023-07-30T11:13:59;24.00;99.90
3100;DHT22;1560;52.746;13.474;2023-07-30T11:16:28;23.80;99.90
3100;DHT22;1560;52.746;13.474;2023-07-30T11:18:57;24.00;99.90
3100;DHT22;1560;52.746;13.474;2023-07-30T11:21:25;24.50;99.90
3100;DHT22;1560;52.746;13.474;2023-07-30T11:23:54;25.00;99.90
3100;DHT22;1560;52.746;13.474;2023-07-30T11:26:22;25.10;99.90
3100;DHT22;1560;52.746;13.474;2023-07-30T11:28:51;25.00;99.90
3100;DHT22;1560;52.746;13.474;2023-07-30T11:31:21;24.50;99.90
3100;DHT22;1560;52.746;13.474;2023-07-30T11:33:52;24.20;99.90
3100;DHT22;1560;52.746;13.474;2023-07-30T11:36:22;24.20;99.90
3100;DHT22;1560;52.746;13.474;2023-07-30T11:38:52;24.40;99.90
3100;DHT22;1560;52.746;13.474;2023-07-30T11:43:58;24.90;99.90
3100;DHT22;1560;52.746;13.474;2023-07-30T11:46:27;24.90;99.90
3100;DHT22;1560;52.746;13.474;2023-07-30T11:49:12;24.60;99.90
3100;DHT22;1560;52.746;13.474;2023-07-30T11:54:21;25.10;99.90
3100;DHT22;1560;52.746;13.474;2023-07-30T11:56:55;25.40;99.90
3100;DHT22;1560;52.746;13.474;2023-07-30T11:59:24;25.30;99.90
3100;DHT22;1560;52.746;13.474;2023-07-30T12:01:52;24.90;99.90
3100;DHT22;1560;52.746;13.474;2023-07-30T12:04:21;24.80;99.90
3100;DHT22;1560;52.746;13.474;2023-07-30T12:06:52;24.70;99.90
3100;DHT22;1560;52.746;13.474;2023-07-30T12:09:22;24.70;99.90
3100;DHT22;1560;52.746;13.474;2023-07-30T12:14:42;24.70;99.90
3100;DHT22;1560;52.746;13.474;2023-07-30T12:17:11;25.00;99.90
3100;DHT22;1560;52.746;13.474;2023-07-30T12:19:41;25.10;99.90
3100;DHT22;1560;52.746;13.474;2023-07-30T12:24:47;25.40;99.90
3100;DHT22;1560;52.746;13.474;2023-07-30T12:27:16;25.40;99.90
3100;DHT22;1560;52.746;13.474;2023-07-30T12:29:45;25.40;99.90
3100;DHT22;1560;52.746;13.474;2023-07-30T12:34:50;25.10;99.90
3100;DHT22;1560;52.746;13.474;2023-07-30T12:37:19;25.10;99.90
3100;DHT22;1560;52.746;13.474;2023-07-30T12:39:47;25.20;99.90
3100;DHT22;1560;52.746;13.474;2023-07-30T12:42:16;25.30;99.90
3100;DHT22;1560;52.746;13.474;2023-07-30T12:47:22;25.10;99.90
3100;DHT22;1560;52.746;13.474;2023-07-30T12:52:28;24.80;99.90
3100;DHT22;1560;52.746;13.474;2023-07-30T12:54:57;24.70;99.90
3100;DHT22;1560;52.746;13.474;2023-07-30T12:57:25;24.70;99.90
3100;DHT22;1560;52.746;13.474;2023-07-30T13:02:31;24.50;99.90
3100;DHT22;1560;52.746;13.474;2023-07-30T13:05:01;24.50;99.90
3100;DHT22;1560;52.746;13.474;2023-07-30T13:07:31;24.50;99.90
3100;DHT22;1560;52.746;13.474;2023-07-30T13:12:45;24.40;99.90
3100;DHT22;1560;52.746;13.474;2023-07-30T13:15:14;24.10;99.90
3100;DHT22;1560;52.746;13.474;2023-07-30T13:20:19;23.70;99.90
3100;DHT22;1560;52.746;13.474;2023-07-30T13:22:49;23.60;99.90
3100;DHT22;1560;52.746;13.474;2023-07-30T13:25:18;23.60;99.90
3100;DHT22;1560;52.746;13.474;2023-07-30T13:30:24;23.60;99.90
3100;DHT22;1560;52.746;13.474;2023-07-30T13:32:53;23.60;99.90
3100;DHT22;1560;52.746;13.474;2023-07-30T13:35:22;23.60;99.90
3100;DHT22;1560;52.746;13.474;2023-07-30T13:37:50;23.70;99.90
3100;DHT22;1560;52.746;13.474;2023-07-30T13:40:19;23.70;99.90
3100;DHT22;1560;52.746;13.474;2023-07-30T13:42:48;23.70;99.90
3100;DHT22;1560;52.746;13.474;2023-07-30T13:45:17;23.60;99.90
3100;DHT22;1560;52.746;13.474;2023-07-30T13:47:45;23.60;99.90
3100;DHT22;1560;52.746;13.474;2023-07-30T13:50:14;23.50;99.90
3100;DHT22;1560;52.746;13.474;2023-07-30T13:52:43;23.40;99.90
3100;DHT22;1560;52.746;13.474;2023-07-30T13:55:11;23.40;99.90
3100;DHT22;1560;52.746;13.474;2023-07-30T13:57:40;23.40;99.90
3100;DHT22;1560;52.746;13.474;2023-07-30T14:00:10;23.40;99.90
3100;DHT22;1560;52.746;13.474;2023-07-30T14:02:39;23.40;99.90
3100;DHT22;1560;52.746;13.474;2023-07-30T14:05:09;23.40;99.90
3100;DHT22;1560;52.746;13.474;2023-07-30T14:10:15;23.50;99.90
3100;DHT22;1560;52.746;13.474;2023-07-30T14:12:44;23.50;99.90
3100;DHT22;1560;52.746;13.474;2023-07-30T14:15:12;23.50;99.90
3100;DHT22;1560;52.746;13.474;2023-07-30T14:17:42;23.50;99.90
3100;DHT22;1560;52.746;13.474;2023-07-30T14:22:48;23.30;99.90
3100;DHT22;1560;52.746;13.474;2023-07-30T14:27:56;23.30;99.90
3100;DHT22;1560;52.746;13.474;2023-07-30T14:30:25;23.40;99.90
3100;DHT22;1560;52.746;13.474;2023-07-30T14:35:31;23.30;99.90
3100;DHT22;1560;52.746;13.474;2023-07-30T14:40:36;23.00;99.90
3100;DHT22;1560;52.746;13.474;2023-07-30T14:43:05;23.10;99.90
3100;DHT22;1560;52.746;13.474;2023-07-30T14:45:34;23.20;99.90
3100;DHT22;1560;52.746;13.474;2023-07-30T14:48:02;23.10;99.90
3100;DHT22;1560;52.746;13.474;2023-07-30T14:50:31;23.10;99.90
3100;DHT22;1560;52.746;13.474;2023-07-30T14:55:37;23.00;99.90
3100;DHT22;1560;52.746;13.474;2023-07-30T15:00:43;22.90;99.90
3100;DHT22;1560;52.746;13.474;2023-07-30T15:05:50;22.90;99.90
3100;DHT22;1560;52.746;13.474;2023-07-30T15:10:56;22.70;99.90
3100;DHT22;1560;52.746;13.474;2023-07-30T15:13:24;22.60;99.90
3100;DHT22;1560;52.746;13.474;2023-07-30T15:15:55;22.50;99.90
3100;DHT22;1560;52.746;13.474;2023-07-30T15:18:23;22.50;99.90
3100;DHT22;1560;52.746;13.474;2023-07-30T15:23:29;22.30;99.90
3100;DHT22;1560;52.746;13.474;2023-07-30T15:28:34;22.20;99.90
3100;DHT22;1560;52.746;13.474;2023-07-30T15:33:39;22.30;99.90
3100;DHT22;1560;52.746;13.474;2023-07-30T15:36:08;22.30;99.90
3100;DHT22;1560;52.746;13.474;2023-07-30T15:38:37;22.30;99.90
3100;DHT22;1560;52.746;13.474;2023-07-30T15:43:43;22.30;99.90
3100;DHT22;1560;52.746;13.474;2023-07-30T15:46:11;22.20;99.90
3100;DHT22;1560;52.746;13.474;2023-07-30T15:48:41;22.20;99.90
3100;DHT22;1560;52.746;13.474;2023-07-30T15:53:46;22.20;99.90
3100;DHT22;1560;52.746;13.474;2023-07-30T15:56:14;22.10;99.90
3100;DHT22;1560;52.746;13.474;2023-07-30T15:58:43;22.10;99.90
3100;DHT22;1560;52.746;13.474;2023-07-30T16:01:11;22.10;99.90
3100;DHT22;1560;52.746;13.474;2023-07-30T16:03:40;22.10;99.90
3100;DHT22;1560;52.746;13.474;2023-07-30T16:06:09;22.10;99.90
3100;DHT22;1560;52.746;13.474;2023-07-30T16:08:38;22.10;99.90
3100;DHT22;1560;52.746;13.474;2023-07-30T16:13:45;21.90;99.90
3100;DHT22;1560;52.746;13.474;2023-07-30T16:16:16;21.80;99.90
3100;DHT22;1560;52.746;13.474;2023-07-30T16:18:47;21.80;99.90
3100;DHT22;1560;52.746;13.474;2023-07-30T16:23:52;21.40;99.90
3100;DHT22;1560;52.746;13.474;2023-07-30T16:26:21;21.40;99.90
3100;DHT22;1560;52.746;13.474;2023-07-30T16:28:50;21.30;99.90
3100;DHT22;1560;52.746;13.474;2023-07-30T16:31:19;21.30;99.90
3100;DHT22;1560;52.746;13.474;2023-07-30T16:33:47;21.10;99.90
3100;DHT22;1560;52.746;13.474;2023-07-30T16:36:16;20.90;99.90
3100;DHT22;1560;52.746;13.474;2023-07-30T16:38:44;20.90;99.90
3100;DHT22;1560;52.746;13.474;2023-07-30T16:43:50;21.00;99.90
3100;DHT22;1560;52.746;13.474;2023-07-30T16:46:19;21.00;99.90
3100;DHT22;1560;52.746;13.474;2023-07-30T16:48:47;20.90;99.90
3100;DHT22;1560;52.746;13.474;2023-07-30T16:51:16;21.00;99.90
3100;DHT22;1560;52.746;13.474;2023-07-30T16:53:45;20.90;99.90
3100;DHT22;1560;52.746;13.474;2023-07-30T16:56:14;20.90;99.90
3100;DHT22;1560;52.746;13.474;2023-07-30T17:01:19;20.90;99.90
3100;DHT22;1560;52.746;13.474;2023-07-30T17:03:49;20.80;99.90
3100;DHT22;1560;52.746;13.474;2023-07-30T17:06:17;20.80;99.90
3100;DHT22;1560;52.746;13.474;2023-07-30T17:08:46;20.80;99.90
3100;DHT22;1560;52.746;13.474;2023-07-30T17:11:14;20.80;99.90
3100;DHT22;1560;52.746;13.474;2023-07-30T17:13:43;20.80;99.90
3100;DHT22;1560;52.746;13.474;2023-07-30T17:16:12;20.80;99.90
3100;DHT22;1560;52.746;13.474;2023-07-30T17:18:42;20.80;99.90
3100;DHT22;1560;52.746;13.474;2023-07-30T17:23:49;20.70;99.90
3100;DHT22;1560;52.746;13.474;2023-07-30T17:26:19;20.70;99.90
3100;DHT22;1560;52.746;13.474;2023-07-30T17:28:48;20.70;99.90
3100;DHT22;1560;52.746;13.474;2023-07-30T17:31:17;20.70;99.90
3100;DHT22;1560;52.746;13.474;2023-07-30T17:33:46;20.70;99.90
3100;DHT22;1560;52.746;13.474;2023-07-30T17:36:14;20.70;99.90
3100;DHT22;1560;52.746;13.474;2023-07-30T17:38:43;20.70;99.90
3100;DHT22;1560;52.746;13.474;2023-07-30T17:41:11;20.60;99.90
3100;DHT22;1560;52.746;13.474;2023-07-30T17:46:18;20.60;99.90
3100;DHT22;1560;52.746;13.474;2023-07-30T17:48:48;20.50;99.90
3100;DHT22;1560;52.746;13.474;2023-07-30T17:51:18;20.50;99.90
3100;DHT22;1560;52.746;13.474;2023-07-30T17:53:48;20.60;99.90
3100;DHT22;1560;52.746;13.474;2023-07-30T17:58:52;20.40;99.90
3100;DHT22;1560;52.746;13.474;2023-07-30T18:01:21;20.40;99.90
3100;DHT22;1560;52.746;13.474;2023-07-30T18:03:50;20.30;99.90
3100;DHT22;1560;52.746;13.474;2023-07-30T18:06:19;20.30;99.90
3100;DHT22;1560;52.746;13.474;2023-07-30T18:11:25;20.20;99.90
3100;DHT22;1560;52.746;13.474;2023-07-30T18:13:54;20.30;99.90
3100;DHT22;1560;52.746;13.474;2023-07-30T18:16:22;20.30;99.90
3100;DHT22;1560;52.746;13.474;2023-07-30T18:18:51;20.30;99.90
3100;DHT22;1560;52.746;13.474;2023-07-30T18:21:20;20.30;99.90
3100;DHT22;1560;52.746;13.474;2023-07-30T18:23:49;20.20;99.90
3100;DHT22;1560;52.746;13.474;2023-07-30T18:26:20;20.10;99.90
3100;DHT22;1560;52.746;13.474;2023-07-30T18:28:49;20.10;99.90
3100;DHT22;1560;52.746;13.474;2023-07-30T18:31:18;20.00;99.90
3100;DHT22;1560;52.746;13.474;2023-07-30T18:33:47;19.80;99.90
3100;DHT22;1560;52.746;13.474;2023-07-30T18:38:54;19.70;99.90
3100;DHT22;1560;52.746;13.474;2023-07-30T18:41:23;19.60;99.90
3100;DHT22;1560;52.746;13.474;2023-07-30T18:43:51;19.50;99.90
3100;DHT22;1560;52.746;13.474;2023-07-30T18:48:56;19.40;99.90
3100;DHT22;1560;52.746;13.474;2023-07-30T18:51:25;19.40;99.90
3100;DHT22;1560;52.746;13.474;2023-07-30T18:53:54;19.50;99.90
3100;DHT22;1560;52.746;13.474;2023-07-30T18:56:23;19.30;99.90
3100;DHT22;1560;52.746;13.474;2023-07-30T18:58:52;19.20;99.90
3100;DHT22;1560;52.746;13.474;2023-07-30T19:01:21;19.30;99.90
3100;DHT22;1560;52.746;13.474;2023-07-30T19:03:51;19.20;99.90
3100;DHT22;1560;52.746;13.474;2023-07-30T19:06:21;19.00;99.90
3100;DHT22;1560;52.746;13.474;2023-07-30T19:08:51;18.80;99.90
3100;DHT22;1560;52.746;13.474;2023-07-30T19:13:59;18.60;99.90
3100;DHT22;1560;52.746;13.474;2023-07-30T19:16:27;18.30;99.90
3100;DHT22;1560;52.746;13.474;2023-07-30T19:18:56;18.20;99.90
3100;DHT22;1560;52.746;13.474;2023-07-30T19:24:03;18.00;99.90
3100;DHT22;1560;52.746;13.474;2023-07-30T19:26:33;17.90;99.90
3100;DHT22;1560;52.746;13.474;2023-07-30T19:29:02;17.80;99.90
3100;DHT22;1560;52.746;13.474;2023-07-30T19:31:30;17.60;99.90
3100;DHT22;1560;52.746;13.474;2023-07-30T19:34:07;17.60;99.90
3100;DHT22;1560;52.746;13.474;2023-07-30T19:39:14;17.20;99.90
3100;DHT22;1560;52.746;13.474;2023-07-30T19:44:20;17.30;99.90
3100;DHT22;1560;52.746;13.474;2023-07-30T19:46:49;17.40;99.90
3100;DHT22;1560;52.746;13.474;2023-07-30T19:49:18;17.40;99.90
3100;DHT22;1560;52.746;13.474;2023-07-30T19:51:46;17.50;99.90
3100;DHT22;1560;52.746;13.474;2023-07-30T19:54:15;17.60;99.90